<?xml version="1.0" encoding="UTF-8" standalone="no" ?>
<gpx xmlns="http://www.topografix.com/GPX/1/1" xmlns:xsi="http://www.w3.org/2001/XMLSchema-instance" xsi:schemaLocation="http://www.topografix.com/GPX/1/1 http://www.topografix.com/GPX/1/1/gpx.xsd" version="1.1" creator="VisuGPX - https://www.visugpx.com">
  <metadata>
    <name>secteur Saverne - Dabo - Petite Pierre</name>
  </metadata>
  <trk>
    <name><![CDATA[secteur Saverne - Dabo - Petite Pierre_26]]></name>
    <trkseg>
      <trkpt lat="48.73849" lon="7.26195">
        <ele>216.6</ele>
        <time>2020-05-22T12:04:31Z</time>
      </trkpt>
      <trkpt lat="48.73849" lon="7.26195">
        <ele>216.6</ele>
        <time>2020-05-22T12:04:31Z</time>
      </trkpt>
      <trkpt lat="48.73849" lon="7.26195">
        <ele>216.6</ele>
        <time>2020-05-22T12:04:31Z</time>
      </trkpt>
      <trkpt lat="48.73849" lon="7.26195">
        <ele>216.6</ele>
        <time>2020-05-22T12:04:31Z</time>
      </trkpt>
      <trkpt lat="48.73849" lon="7.26195">
        <ele>216.6</ele>
        <time>2020-05-22T12:04:31Z</time>
      </trkpt>
      <trkpt lat="48.73849" lon="7.26195">
        <ele>216.6</ele>
        <time>2020-05-22T12:04:31Z</time>
      </trkpt>
      <trkpt lat="48.73849" lon="7.26195">
        <ele>216.6</ele>
        <time>2020-05-22T12:04:31Z</time>
      </trkpt>
      <trkpt lat="48.73847" lon="7.26191">
        <ele>216.5</ele>
        <time>2020-05-22T12:04:32Z</time>
      </trkpt>
      <trkpt lat="48.73843" lon="7.26181">
        <ele>216.2</ele>
        <time>2020-05-22T12:04:34Z</time>
      </trkpt>
      <trkpt lat="48.73841" lon="7.26176">
        <ele>216.1</ele>
        <time>2020-05-22T12:04:35Z</time>
      </trkpt>
      <trkpt lat="48.73837" lon="7.26171">
        <ele>216</ele>
        <time>2020-05-22T12:04:36Z</time>
      </trkpt>
      <trkpt lat="48.7383" lon="7.26163">
        <ele>215.8</ele>
        <time>2020-05-22T12:04:38Z</time>
      </trkpt>
      <trkpt lat="48.73821" lon="7.26153">
        <ele>215.5</ele>
        <time>2020-05-22T12:04:40Z</time>
      </trkpt>
      <trkpt lat="48.73812" lon="7.26144">
        <ele>215.3</ele>
        <time>2020-05-22T12:04:42Z</time>
      </trkpt>
      <trkpt lat="48.73803" lon="7.26133">
        <ele>215</ele>
        <time>2020-05-22T12:04:44Z</time>
      </trkpt>
      <trkpt lat="48.73798" lon="7.26128">
        <ele>214.9</ele>
        <time>2020-05-22T12:04:45Z</time>
      </trkpt>
      <trkpt lat="48.73794" lon="7.26124">
        <ele>214.9</ele>
        <time>2020-05-22T12:04:46Z</time>
      </trkpt>
      <trkpt lat="48.73786" lon="7.26116">
        <ele>214.9</ele>
        <time>2020-05-22T12:04:48Z</time>
      </trkpt>
      <trkpt lat="48.73777" lon="7.26105">
        <ele>214.9</ele>
        <time>2020-05-22T12:04:50Z</time>
      </trkpt>
      <trkpt lat="48.73772" lon="7.261">
        <ele>214.9</ele>
        <time>2020-05-22T12:04:51Z</time>
      </trkpt>
      <trkpt lat="48.73763" lon="7.2609">
        <ele>215</ele>
        <time>2020-05-22T12:04:53Z</time>
      </trkpt>
      <trkpt lat="48.73759" lon="7.26084">
        <ele>215</ele>
        <time>2020-05-22T12:04:54Z</time>
      </trkpt>
      <trkpt lat="48.73755" lon="7.26078">
        <ele>215.1</ele>
        <time>2020-05-22T12:04:55Z</time>
      </trkpt>
      <trkpt lat="48.73751" lon="7.26072">
        <ele>215.2</ele>
        <time>2020-05-22T12:04:56Z</time>
      </trkpt>
      <trkpt lat="48.73745" lon="7.26061">
        <ele>215.3</ele>
        <time>2020-05-22T12:04:58Z</time>
      </trkpt>
      <trkpt lat="48.73741" lon="7.26056">
        <ele>215.4</ele>
        <time>2020-05-22T12:04:59Z</time>
      </trkpt>
      <trkpt lat="48.73734" lon="7.26045">
        <ele>215.6</ele>
        <time>2020-05-22T12:05:01Z</time>
      </trkpt>
      <trkpt lat="48.73727" lon="7.26036">
        <ele>215.8</ele>
        <time>2020-05-22T12:05:03Z</time>
      </trkpt>
      <trkpt lat="48.73719" lon="7.26027">
        <ele>216</ele>
        <time>2020-05-22T12:05:05Z</time>
      </trkpt>
      <trkpt lat="48.73715" lon="7.26021">
        <ele>216.1</ele>
        <time>2020-05-22T12:05:06Z</time>
      </trkpt>
      <trkpt lat="48.73709" lon="7.26012">
        <ele>216.4</ele>
        <time>2020-05-22T12:05:08Z</time>
      </trkpt>
      <trkpt lat="48.73703" lon="7.26003">
        <ele>216.6</ele>
        <time>2020-05-22T12:05:10Z</time>
      </trkpt>
      <trkpt lat="48.73697" lon="7.25994">
        <ele>216.8</ele>
        <time>2020-05-22T12:05:12Z</time>
      </trkpt>
      <trkpt lat="48.73694" lon="7.25989">
        <ele>216.9</ele>
        <time>2020-05-22T12:05:13Z</time>
      </trkpt>
      <trkpt lat="48.73691" lon="7.25985">
        <ele>217</ele>
        <time>2020-05-22T12:05:14Z</time>
      </trkpt>
      <trkpt lat="48.73686" lon="7.25977">
        <ele>217.1</ele>
        <time>2020-05-22T12:05:16Z</time>
      </trkpt>
      <trkpt lat="48.73683" lon="7.25973">
        <ele>217.2</ele>
        <time>2020-05-22T12:05:17Z</time>
      </trkpt>
      <trkpt lat="48.7368" lon="7.25969">
        <ele>217.2</ele>
        <time>2020-05-22T12:05:18Z</time>
      </trkpt>
      <trkpt lat="48.73675" lon="7.25962">
        <ele>217.3</ele>
        <time>2020-05-22T12:05:20Z</time>
      </trkpt>
      <trkpt lat="48.73672" lon="7.25957">
        <ele>217.4</ele>
        <time>2020-05-22T12:05:21Z</time>
      </trkpt>
      <trkpt lat="48.73669" lon="7.25953">
        <ele>217.4</ele>
        <time>2020-05-22T12:05:22Z</time>
      </trkpt>
      <trkpt lat="48.73662" lon="7.25944">
        <ele>217.2</ele>
        <time>2020-05-22T12:05:24Z</time>
      </trkpt>
      <trkpt lat="48.73659" lon="7.2594">
        <ele>217.1</ele>
        <time>2020-05-22T12:05:25Z</time>
      </trkpt>
      <trkpt lat="48.73653" lon="7.2593">
        <ele>216.9</ele>
        <time>2020-05-22T12:05:27Z</time>
      </trkpt>
      <trkpt lat="48.73647" lon="7.25919">
        <ele>216.7</ele>
        <time>2020-05-22T12:05:29Z</time>
      </trkpt>
      <trkpt lat="48.73644" lon="7.25914">
        <ele>216.6</ele>
        <time>2020-05-22T12:05:30Z</time>
      </trkpt>
      <trkpt lat="48.73639" lon="7.25902">
        <ele>216.4</ele>
        <time>2020-05-22T12:05:32Z</time>
      </trkpt>
      <trkpt lat="48.73635" lon="7.2589">
        <ele>216.1</ele>
        <time>2020-05-22T12:05:34Z</time>
      </trkpt>
      <trkpt lat="48.73631" lon="7.25878">
        <ele>215.9</ele>
        <time>2020-05-22T12:05:36Z</time>
      </trkpt>
      <trkpt lat="48.73629" lon="7.25872">
        <ele>215.9</ele>
        <time>2020-05-22T12:05:37Z</time>
      </trkpt>
      <trkpt lat="48.73625" lon="7.25858">
        <ele>215.6</ele>
        <time>2020-05-22T12:05:39Z</time>
      </trkpt>
      <trkpt lat="48.73623" lon="7.25852">
        <ele>215.5</ele>
        <time>2020-05-22T12:05:40Z</time>
      </trkpt>
      <trkpt lat="48.73618" lon="7.25841">
        <ele>215.3</ele>
        <time>2020-05-22T12:05:42Z</time>
      </trkpt>
      <trkpt lat="48.73614" lon="7.25828">
        <ele>215.1</ele>
        <time>2020-05-22T12:05:44Z</time>
      </trkpt>
      <trkpt lat="48.73611" lon="7.25815">
        <ele>214.9</ele>
        <time>2020-05-22T12:05:46Z</time>
      </trkpt>
      <trkpt lat="48.73609" lon="7.25803">
        <ele>214.9</ele>
        <time>2020-05-22T12:05:48Z</time>
      </trkpt>
      <trkpt lat="48.73608" lon="7.25797">
        <ele>214.9</ele>
        <time>2020-05-22T12:05:49Z</time>
      </trkpt>
      <trkpt lat="48.73607" lon="7.2579">
        <ele>214.8</ele>
        <time>2020-05-22T12:05:50Z</time>
      </trkpt>
      <trkpt lat="48.73606" lon="7.25778">
        <ele>214.8</ele>
        <time>2020-05-22T12:05:52Z</time>
      </trkpt>
      <trkpt lat="48.73605" lon="7.25766">
        <ele>214.8</ele>
        <time>2020-05-22T12:05:54Z</time>
      </trkpt>
      <trkpt lat="48.73604" lon="7.25753">
        <ele>214.8</ele>
        <time>2020-05-22T12:05:56Z</time>
      </trkpt>
      <trkpt lat="48.73603" lon="7.25747">
        <ele>214.8</ele>
        <time>2020-05-22T12:05:57Z</time>
      </trkpt>
      <trkpt lat="48.73602" lon="7.25736">
        <ele>214.8</ele>
        <time>2020-05-22T12:06:00Z</time>
      </trkpt>
      <trkpt lat="48.73602" lon="7.25724">
        <ele>214.8</ele>
        <time>2020-05-22T12:06:02Z</time>
      </trkpt>
      <trkpt lat="48.73601" lon="7.25719">
        <ele>214.8</ele>
        <time>2020-05-22T12:06:03Z</time>
      </trkpt>
      <trkpt lat="48.73602" lon="7.25707">
        <ele>214.8</ele>
        <time>2020-05-22T12:06:05Z</time>
      </trkpt>
      <trkpt lat="48.73602" lon="7.257">
        <ele>214.8</ele>
        <time>2020-05-22T12:06:06Z</time>
      </trkpt>
      <trkpt lat="48.73603" lon="7.25694">
        <ele>214.9</ele>
        <time>2020-05-22T12:06:07Z</time>
      </trkpt>
      <trkpt lat="48.73604" lon="7.25682">
        <ele>214.9</ele>
        <time>2020-05-22T12:06:09Z</time>
      </trkpt>
      <trkpt lat="48.73605" lon="7.25676">
        <ele>215</ele>
        <time>2020-05-22T12:06:10Z</time>
      </trkpt>
      <trkpt lat="48.73606" lon="7.25664">
        <ele>215</ele>
        <time>2020-05-22T12:06:12Z</time>
      </trkpt>
      <trkpt lat="48.73607" lon="7.25653">
        <ele>215.1</ele>
        <time>2020-05-22T12:06:14Z</time>
      </trkpt>
      <trkpt lat="48.73608" lon="7.25641">
        <ele>215.1</ele>
        <time>2020-05-22T12:06:16Z</time>
      </trkpt>
      <trkpt lat="48.73608" lon="7.25635">
        <ele>215.1</ele>
        <time>2020-05-22T12:06:17Z</time>
      </trkpt>
      <trkpt lat="48.73609" lon="7.25624">
        <ele>215.2</ele>
        <time>2020-05-22T12:06:19Z</time>
      </trkpt>
      <trkpt lat="48.73609" lon="7.25618">
        <ele>215.2</ele>
        <time>2020-05-22T12:06:20Z</time>
      </trkpt>
      <trkpt lat="48.7361" lon="7.25611">
        <ele>215.2</ele>
        <time>2020-05-22T12:06:21Z</time>
      </trkpt>
      <trkpt lat="48.73611" lon="7.25599">
        <ele>215.3</ele>
        <time>2020-05-22T12:06:23Z</time>
      </trkpt>
      <trkpt lat="48.73612" lon="7.25593">
        <ele>215.3</ele>
        <time>2020-05-22T12:06:24Z</time>
      </trkpt>
      <trkpt lat="48.73611" lon="7.25583">
        <ele>215.3</ele>
        <time>2020-05-22T12:06:26Z</time>
      </trkpt>
      <trkpt lat="48.7361" lon="7.25577">
        <ele>215.6</ele>
        <time>2020-05-22T12:06:27Z</time>
      </trkpt>
      <trkpt lat="48.73607" lon="7.25569">
        <ele>215.6</ele>
        <time>2020-05-22T12:06:29Z</time>
      </trkpt>
      <trkpt lat="48.73601" lon="7.25563">
        <ele>215.7</ele>
        <time>2020-05-22T12:06:31Z</time>
      </trkpt>
      <trkpt lat="48.73594" lon="7.2556">
        <ele>215.7</ele>
        <time>2020-05-22T12:06:33Z</time>
      </trkpt>
      <trkpt lat="48.7359" lon="7.25558">
        <ele>215.7</ele>
        <time>2020-05-22T12:06:34Z</time>
      </trkpt>
      <trkpt lat="48.73586" lon="7.25557">
        <ele>215.7</ele>
        <time>2020-05-22T12:06:35Z</time>
      </trkpt>
      <trkpt lat="48.73582" lon="7.25555">
        <ele>215.7</ele>
        <time>2020-05-22T12:06:36Z</time>
      </trkpt>
      <trkpt lat="48.73576" lon="7.25549">
        <ele>215.7</ele>
        <time>2020-05-22T12:06:38Z</time>
      </trkpt>
      <trkpt lat="48.73572" lon="7.2554">
        <ele>215.6</ele>
        <time>2020-05-22T12:06:40Z</time>
      </trkpt>
      <trkpt lat="48.73571" lon="7.25528">
        <ele>215.6</ele>
        <time>2020-05-22T12:06:42Z</time>
      </trkpt>
      <trkpt lat="48.73571" lon="7.25522">
        <ele>215.6</ele>
        <time>2020-05-22T12:06:43Z</time>
      </trkpt>
      <trkpt lat="48.73571" lon="7.25517">
        <ele>215.6</ele>
        <time>2020-05-22T12:06:44Z</time>
      </trkpt>
      <trkpt lat="48.73571" lon="7.25511">
        <ele>215.6</ele>
        <time>2020-05-22T12:06:45Z</time>
      </trkpt>
      <trkpt lat="48.7357" lon="7.25506">
        <ele>215.6</ele>
        <time>2020-05-22T12:06:46Z</time>
      </trkpt>
      <trkpt lat="48.7357" lon="7.25501">
        <ele>215.6</ele>
        <time>2020-05-22T12:06:47Z</time>
      </trkpt>
      <trkpt lat="48.7357" lon="7.2549">
        <ele>215.6</ele>
        <time>2020-05-22T12:06:49Z</time>
      </trkpt>
      <trkpt lat="48.73569" lon="7.25478">
        <ele>215.5</ele>
        <time>2020-05-22T12:06:51Z</time>
      </trkpt>
      <trkpt lat="48.73568" lon="7.25466">
        <ele>215.5</ele>
        <time>2020-05-22T12:06:53Z</time>
      </trkpt>
      <trkpt lat="48.73569" lon="7.2546">
        <ele>215.5</ele>
        <time>2020-05-22T12:06:54Z</time>
      </trkpt>
      <trkpt lat="48.73567" lon="7.25446">
        <ele>215.5</ele>
        <time>2020-05-22T12:06:56Z</time>
      </trkpt>
      <trkpt lat="48.73567" lon="7.25439">
        <ele>215.5</ele>
        <time>2020-05-22T12:06:57Z</time>
      </trkpt>
      <trkpt lat="48.73566" lon="7.25426">
        <ele>215.5</ele>
        <time>2020-05-22T12:06:59Z</time>
      </trkpt>
      <trkpt lat="48.73565" lon="7.25412">
        <ele>215.5</ele>
        <time>2020-05-22T12:07:01Z</time>
      </trkpt>
      <trkpt lat="48.73565" lon="7.25406">
        <ele>215.5</ele>
        <time>2020-05-22T12:07:02Z</time>
      </trkpt>
      <trkpt lat="48.73563" lon="7.25394">
        <ele>215.5</ele>
        <time>2020-05-22T12:07:04Z</time>
      </trkpt>
      <trkpt lat="48.73562" lon="7.25388">
        <ele>215.5</ele>
        <time>2020-05-22T12:07:05Z</time>
      </trkpt>
      <trkpt lat="48.73562" lon="7.25376">
        <ele>215.6</ele>
        <time>2020-05-22T12:07:07Z</time>
      </trkpt>
      <trkpt lat="48.73561" lon="7.25364">
        <ele>215.6</ele>
        <time>2020-05-22T12:07:09Z</time>
      </trkpt>
      <trkpt lat="48.73561" lon="7.25357">
        <ele>215.6</ele>
        <time>2020-05-22T12:07:10Z</time>
      </trkpt>
      <trkpt lat="48.7356" lon="7.25344">
        <ele>215.6</ele>
        <time>2020-05-22T12:07:12Z</time>
      </trkpt>
      <trkpt lat="48.73559" lon="7.25331">
        <ele>215.6</ele>
        <time>2020-05-22T12:07:14Z</time>
      </trkpt>
      <trkpt lat="48.73559" lon="7.25325">
        <ele>215.6</ele>
        <time>2020-05-22T12:07:15Z</time>
      </trkpt>
      <trkpt lat="48.73559" lon="7.25313">
        <ele>215.7</ele>
        <time>2020-05-22T12:07:17Z</time>
      </trkpt>
      <trkpt lat="48.73558" lon="7.25301">
        <ele>215.7</ele>
        <time>2020-05-22T12:07:19Z</time>
      </trkpt>
      <trkpt lat="48.73558" lon="7.2529">
        <ele>215.7</ele>
        <time>2020-05-22T12:07:21Z</time>
      </trkpt>
      <trkpt lat="48.73557" lon="7.25283">
        <ele>215.7</ele>
        <time>2020-05-22T12:07:22Z</time>
      </trkpt>
      <trkpt lat="48.73556" lon="7.2527">
        <ele>215.7</ele>
        <time>2020-05-22T12:07:24Z</time>
      </trkpt>
      <trkpt lat="48.73553" lon="7.25258">
        <ele>215.7</ele>
        <time>2020-05-22T12:07:26Z</time>
      </trkpt>
      <trkpt lat="48.73552" lon="7.25246">
        <ele>215.8</ele>
        <time>2020-05-22T12:07:28Z</time>
      </trkpt>
      <trkpt lat="48.73551" lon="7.25233">
        <ele>215.8</ele>
        <time>2020-05-22T12:07:30Z</time>
      </trkpt>
      <trkpt lat="48.7355" lon="7.25226">
        <ele>215.8</ele>
        <time>2020-05-22T12:07:31Z</time>
      </trkpt>
      <trkpt lat="48.73549" lon="7.25219">
        <ele>215.8</ele>
        <time>2020-05-22T12:07:32Z</time>
      </trkpt>
      <trkpt lat="48.73548" lon="7.25213">
        <ele>215.9</ele>
        <time>2020-05-22T12:07:33Z</time>
      </trkpt>
      <trkpt lat="48.73547" lon="7.252">
        <ele>216</ele>
        <time>2020-05-22T12:07:35Z</time>
      </trkpt>
      <trkpt lat="48.73546" lon="7.25187">
        <ele>216.2</ele>
        <time>2020-05-22T12:07:37Z</time>
      </trkpt>
      <trkpt lat="48.73545" lon="7.25181">
        <ele>216.2</ele>
        <time>2020-05-22T12:07:38Z</time>
      </trkpt>
      <trkpt lat="48.73544" lon="7.25168">
        <ele>216.4</ele>
        <time>2020-05-22T12:07:40Z</time>
      </trkpt>
      <trkpt lat="48.73544" lon="7.25155">
        <ele>216.8</ele>
        <time>2020-05-22T12:07:42Z</time>
      </trkpt>
      <trkpt lat="48.73543" lon="7.25149">
        <ele>217</ele>
        <time>2020-05-22T12:07:43Z</time>
      </trkpt>
      <trkpt lat="48.73542" lon="7.25136">
        <ele>217.4</ele>
        <time>2020-05-22T12:07:45Z</time>
      </trkpt>
      <trkpt lat="48.73539" lon="7.25125">
        <ele>217.9</ele>
        <time>2020-05-22T12:07:47Z</time>
      </trkpt>
      <trkpt lat="48.73537" lon="7.2512">
        <ele>218.2</ele>
        <time>2020-05-22T12:07:48Z</time>
      </trkpt>
      <trkpt lat="48.73533" lon="7.25112">
        <ele>218.8</ele>
        <time>2020-05-22T12:07:50Z</time>
      </trkpt>
      <trkpt lat="48.7353" lon="7.25108">
        <ele>218.9</ele>
        <time>2020-05-22T12:07:51Z</time>
      </trkpt>
      <trkpt lat="48.73525" lon="7.25102">
        <ele>218.9</ele>
        <time>2020-05-22T12:07:53Z</time>
      </trkpt>
    </trkseg>
  </trk>
</gpx>